Cosco Nagoya — 3ESJ8 — position and weather

sailwx.info

Track history (hours):
 
Tides and Currents Weather Stations Pressure Air Temp Water Temp Dewpoint Dewpoint Depression Visibility Wind Speed Wind Dir Waves Ship Positions

Cosco Nagoya

Last reported at 2014-Jul-28 21:20 UTC. Time now 2014-Jul-30 13:10 UTC.
Position N 34°12' W 076°09'.

Length 260 m; draft 10.2 m.

Type: Cargo ship. MMSI: 370320000.

Date/timePositionNaut miles runAvg speedWind from/ knotsBaromVisibWave heightAir tempDewpointWater temp
2014-Jul-28 21:20N 34°12' W 076°09'1012.2
2014-Jul-28 20:32N 34°19' W 076°00'1211.9
2014-Jul-28 19:34N 34°27' W 075°50'1212.0
2014-Jul-28 18:32N 34°35' W 075°39'6312.7
2014-Jul-28 13:33N 35°29' W 074°60'2318.3
2014-Jul-28 12:18N 35°53' W 074°60'1318.1
2014-Jul-28 11:33N 36°05' W 075°05'5317.4
2014-Jul-28 08:32N 36°48' W 075°43'1616.5
2014-Jul-28 07:33N 36°57' W 075°60'1515.0
2014-Jul-28 06:31N 36°59' W 076°19'5 2.1
2014-Jul-28 04:15N 36°55' W 076°20'0 0.0
2014-Jul-28 02:27N 36°55' W 076°20'0 0.0
2014-Jul-27 22:12N 36°55' W 076°20'0 0.0
2014-Jul-27 20:33N 36°55' W 076°20'0 0.0
2014-Jul-27 16:06N 36°55' W 076°20'0 0.0
2014-Jul-27 13:24N 36°55' W 076°20'0 0.0
2014-Jul-27 12:12N 36°55' W 076°20'2 0.7
2014-Jul-27 09:33N 36°56' W 076°20'1010.1
2014-Jul-27 08:32N 36°59' W 076°08'1212.3
2014-Jul-27 07:33N 36°54' W 075°54'1010.6
2014-Jul-27 06:33N 36°49' W 075°43'16312.5
2014-Jul-26 17:33N 39°01' W 073°42'1515.1
2014-Jul-26 16:33N 39°15' W 073°34'1515.3
2014-Jul-26 15:33N 39°30' W 073°27'1515.3
2014-Jul-26 14:34N 39°45' W 073°24'1515.0
2014-Jul-26 13:34N 39°59' W 073°20'1515.3
2014-Jul-26 12:34N 40°11' W 073°32'1615.5
2014-Jul-26 11:34N 40°23' W 073°45'1413.7
2014-Jul-26 10:34N 40°31' W 073°60'10 9.7
2014-Jul-26 09:34N 40°39' W 074°08'2 2.1
2014-Jul-26 08:31N 40°41' W 074°09'0 0.0
2014-Jul-26 07:31N 40°41' W 074°09'0 0.0
2014-Jul-26 06:31N 40°41' W 074°09'0 0.0
2014-Jul-26 05:31N 40°41' W 074°09'0 0.0
2014-Jul-26 04:31N 40°41' W 074°09'0 0.0
2014-Jul-26 03:31N 40°41' W 074°09'0 0.0
2014-Jul-26 02:31N 40°41' W 074°09'0 0.0
2014-Jul-26 01:31N 40°41' W 074°09'0 0.0
2014-Jul-26 00:31N 40°41' W 074°09'0 0.0
2014-Jul-25 23:31N 40°41' W 074°09'0 0.0
2014-Jul-25 22:31N 40°41' W 074°09'0 0.0
2014-Jul-25 21:31N 40°41' W 074°09'0 0.0
2014-Jul-25 20:31N 40°41' W 074°09'0 0.0
2014-Jul-25 19:31N 40°41' W 074°09'0 0.0
2014-Jul-25 18:31N 40°41' W 074°09'0 0.0
2014-Jul-25 17:31N 40°41' W 074°09'0 0.0
2014-Jul-25 16:31N 40°41' W 074°09'0 0.0
2014-Jul-25 15:31N 40°41' W 074°09'0 0.0
2014-Jul-25 14:31N 40°41' W 074°09'0 0.0
2014-Jul-25 13:31N 40°41' W 074°09'2 1.8
2014-Jul-25 12:33N 40°39' W 074°09'5 5.2
2014-Jul-25 11:33N 40°37' W 074°03'1 0.7
2014-Jul-25 10:33N 40°37' W 074°03'8 7.9
2014-Jul-25 09:33N 40°31' W 073°58'10 9.8
2014-Jul-25 08:33N 40°27' W 073°46'2 2.3
2014-Jul-25 07:32N 40°27' W 073°43'7 6.6
2014-Jul-25 06:33N 40°28' W 073°34'1313.1
2014-Jul-25 05:34N 40°29' W 073°17'1713.0
2014-Jul-25 04:13N 40°30' W 072°54'913.0
2014-Jul-25 03:33N 40°30' W 072°43'1312.8
2014-Jul-25 02:34N 40°31' W 072°26'1312.6
2014-Jul-25 01:33N 40°31' W 072°10'1312.8
2014-Jul-25 00:33N 40°32' W 071°53'1414.2
2014-Jul-24 23:34N 40°32' W 071°34'1 0.9
2014-Jul-24 22:34N 40°32' W 071°33'1 0.8
2014-Jul-24 21:33N 40°31' W 071°32'1 0.8
2014-Jul-24 20:33N 40°31' W 071°31'1 0.6
2014-Jul-24 19:33N 40°31' W 071°30'1 0.8
2014-Jul-24 18:33N 40°32' W 071°30'0 0.4
2014-Jul-24 17:33N 40°32' W 071°29'8 8.5
2014-Jul-24 16:33N 40°32' W 071°18'1312.8
2014-Jul-24 15:33N 40°33' W 071°01'1312.7
2014-Jul-24 14:33N 40°33' W 070°45'1212.3
2014-Jul-24 13:33N 40°33' W 070°28'1615.6
2014-Jul-24 12:32N 40°34' W 070°08'1515.2
2014-Jul-24 11:33N 40°34' W 069°48'1514.7
2014-Jul-24 10:33N 40°35' W 069°29'1515.1
2014-Jul-24 09:33N 40°35' W 069°09'1615.2
2014-Jul-24 08:32N 40°36' W 068°48'1515.0
2014-Jul-24 07:33N 40°36' W 068°29'1514.9
2014-Jul-24 06:33N 40°36' W 068°09'1514.6
2014-Jul-24 05:33N 40°36' W 067°50'1414.3
2014-Jul-24 04:33N 40°35' W 067°31'1414.1
2014-Jul-24 03:33N 40°35' W 067°13'1414.2
2014-Jul-24 02:33N 40°35' W 066°54'2914.0
2014-Jul-24 00:30N 40°35' W 066°16'1313.9
2014-Jul-23 23:33N 40°35' W 065°59'1514.4
2014-Jul-23 22:29N 40°34' W 065°38'3115.7
2014-Jul-23 20:33N 40°34' W 064°58'1615.5
2014-Jul-23 19:32N 40°34' W 064°38'  
Track history (hours):
 
Tides and Currents Weather Stations Pressure Air Temp Water Temp Dewpoint Dewpoint Depression Visibility Wind Speed Wind Dir Waves Ship Positions

Cosco Nagoya

Last reported at 2014-Jul-28 21:20 UTC. Time now 2014-Jul-30 13:10 UTC.
Position N 34°12' W 076°09'.

Length 260 m; draft 10.2 m.

Type: Cargo ship. MMSI: 370320000.

Date/timePositionNaut miles runAvg speedWind from/ knotsBaromVisibWave heightAir tempDewpointWater temp
2014-Jul-28 21:20N 34°12' W 076°09'1012.2
2014-Jul-28 20:32N 34°19' W 076°00'1211.9
2014-Jul-28 19:34N 34°27' W 075°50'1212.0
2014-Jul-28 18:32N 34°35' W 075°39'6312.7
2014-Jul-28 13:33N 35°29' W 074°60'2318.3
2014-Jul-28 12:18N 35°53' W 074°60'1318.1
2014-Jul-28 11:33N 36°05' W 075°05'5317.4
2014-Jul-28 08:32N 36°48' W 075°43'1616.5
2014-Jul-28 07:33N 36°57' W 075°60'1515.0
2014-Jul-28 06:31N 36°59' W 076°19'5 2.1
2014-Jul-28 04:15N 36°55' W 076°20'0 0.0
2014-Jul-28 02:27N 36°55' W 076°20'0 0.0
2014-Jul-27 22:12N 36°55' W 076°20'0 0.0
2014-Jul-27 20:33N 36°55' W 076°20'0 0.0
2014-Jul-27 16:06N 36°55' W 076°20'0 0.0
2014-Jul-27 13:24N 36°55' W 076°20'0 0.0
2014-Jul-27 12:12N 36°55' W 076°20'2 0.7
2014-Jul-27 09:33N 36°56' W 076°20'1010.1
2014-Jul-27 08:32N 36°59' W 076°08'1212.3
2014-Jul-27 07:33N 36°54' W 075°54'1010.6
2014-Jul-27 06:33N 36°49' W 075°43'16312.5
2014-Jul-26 17:33N 39°01' W 073°42'1515.1
2014-Jul-26 16:33N 39°15' W 073°34'1515.3
2014-Jul-26 15:33N 39°30' W 073°27'1515.3
2014-Jul-26 14:34N 39°45' W 073°24'1515.0
2014-Jul-26 13:34N 39°59' W 073°20'1515.3
2014-Jul-26 12:34N 40°11' W 073°32'1615.5
2014-Jul-26 11:34N 40°23' W 073°45'1413.7
2014-Jul-26 10:34N 40°31' W 073°60'10 9.7
2014-Jul-26 09:34N 40°39' W 074°08'2 2.1
2014-Jul-26 08:31N 40°41' W 074°09'0 0.0
2014-Jul-26 07:31N 40°41' W 074°09'0 0.0
2014-Jul-26 06:31N 40°41' W 074°09'0 0.0
2014-Jul-26 05:31N 40°41' W 074°09'0 0.0
2014-Jul-26 04:31N 40°41' W 074°09'0 0.0
2014-Jul-26 03:31N 40°41' W 074°09'0 0.0
2014-Jul-26 02:31N 40°41' W 074°09'0 0.0
2014-Jul-26 01:31N 40°41' W 074°09'0 0.0
2014-Jul-26 00:31N 40°41' W 074°09'0 0.0
2014-Jul-25 23:31N 40°41' W 074°09'0 0.0
2014-Jul-25 22:31N 40°41' W 074°09'0 0.0
2014-Jul-25 21:31N 40°41' W 074°09'0 0.0
2014-Jul-25 20:31N 40°41' W 074°09'0 0.0
2014-Jul-25 19:31N 40°41' W 074°09'0 0.0
2014-Jul-25 18:31N 40°41' W 074°09'0 0.0
2014-Jul-25 17:31N 40°41' W 074°09'0 0.0
2014-Jul-25 16:31N 40°41' W 074°09'0 0.0
2014-Jul-25 15:31N 40°41' W 074°09'0 0.0
2014-Jul-25 14:31N 40°41' W 074°09'0 0.0
2014-Jul-25 13:31N 40°41' W 074°09'2 1.8
2014-Jul-25 12:33N 40°39' W 074°09'5 5.2
2014-Jul-25 11:33N 40°37' W 074°03'1 0.7
2014-Jul-25 10:33N 40°37' W 074°03'8 7.9
2014-Jul-25 09:33N 40°31' W 073°58'10 9.8
2014-Jul-25 08:33N 40°27' W 073°46'2 2.3
2014-Jul-25 07:32N 40°27' W 073°43'7 6.6
2014-Jul-25 06:33N 40°28' W 073°34'1313.1
2014-Jul-25 05:34N 40°29' W 073°17'1713.0
2014-Jul-25 04:13N 40°30' W 072°54'913.0
2014-Jul-25 03:33N 40°30' W 072°43'1312.8
2014-Jul-25 02:34N 40°31' W 072°26'1312.6
2014-Jul-25 01:33N 40°31' W 072°10'1312.8
2014-Jul-25 00:33N 40°32' W 071°53'1414.2
2014-Jul-24 23:34N 40°32' W 071°34'1 0.9
2014-Jul-24 22:34N 40°32' W 071°33'1 0.8
2014-Jul-24 21:33N 40°31' W 071°32'1 0.8
2014-Jul-24 20:33N 40°31' W 071°31'1 0.6
2014-Jul-24 19:33N 40°31' W 071°30'1 0.8
2014-Jul-24 18:33N 40°32' W 071°30'0 0.4
2014-Jul-24 17:33N 40°32' W 071°29'8 8.5
2014-Jul-24 16:33N 40°32' W 071°18'1312.8
2014-Jul-24 15:33N 40°33' W 071°01'1312.7
2014-Jul-24 14:33N 40°33' W 070°45'1212.3
2014-Jul-24 13:33N 40°33' W 070°28'1615.6
2014-Jul-24 12:32N 40°34' W 070°08'1515.2
2014-Jul-24 11:33N 40°34' W 069°48'1514.7
2014-Jul-24 10:33N 40°35' W 069°29'1515.1
2014-Jul-24 09:33N 40°35' W 069°09'1615.2
2014-Jul-24 08:32N 40°36' W 068°48'1515.0
2014-Jul-24 07:33N 40°36' W 068°29'1514.9
2014-Jul-24 06:33N 40°36' W 068°09'1514.6
2014-Jul-24 05:33N 40°36' W 067°50'1414.3
2014-Jul-24 04:33N 40°35' W 067°31'1414.1
2014-Jul-24 03:33N 40°35' W 067°13'1414.2
2014-Jul-24 02:33N 40°35' W 066°54'2914.0
2014-Jul-24 00:30N 40°35' W 066°16'1313.9
2014-Jul-23 23:33N 40°35' W 065°59'1514.4
2014-Jul-23 22:29N 40°34' W 065°38'3115.7
2014-Jul-23 20:33N 40°34' W 064°58'1615.5
2014-Jul-23 19:32N 40°34' W 064°38'  

Dump ship's entire track history